createdAt,value
2023-05-12T00:02:29.833Z,12.34
2023-05-12T00:05:01.987Z,12.34
2023-05-12T00:07:33.867Z,12.34
2023-05-12T00:10:06.508Z,12.34
2023-05-12T00:12:38.515Z,12.34
2023-05-12T00:15:11.113Z,12.32
2023-05-12T00:17:43.056Z,12.30
2023-05-12T00:20:15.319Z,12.27
2023-05-12T00:22:47.057Z,12.18
2023-05-12T00:25:19.276Z,12.13
2023-05-12T00:28:03.246Z,12.06
2023-05-12T00:30:35.190Z,11.99
2023-05-12T00:33:07.162Z,11.93
2023-05-12T00:35:39.034Z,11.88
2023-05-12T00:38:11.459Z,11.82
2023-05-12T00:40:43.529Z,11.75
2023-05-12T00:43:15.620Z,11.68
2023-05-12T00:45:47.484Z,11.60
2023-05-12T00:48:19.413Z,11.53
2023-05-12T00:50:51.282Z,11.50
2023-05-12T00:53:22.995Z,11.46
2023-05-12T00:55:55.711Z,11.41
2023-05-12T00:58:27.977Z,11.36
2023-05-12T01:01:00.073Z,11.33
2023-05-12T01:03:32.333Z,11.30
2023-05-12T01:06:14.554Z,11.28
2023-05-12T01:08:47.156Z,11.24
2023-05-12T01:11:19.590Z,11.19
2023-05-12T01:13:51.236Z,11.16
2023-05-12T01:16:25.014Z,11.11
2023-05-12T01:18:57.320Z,11.09
2023-05-12T01:21:29.365Z,11.07
2023-05-12T01:24:04.036Z,11.05
2023-05-12T01:26:36.008Z,11.05
2023-05-12T01:29:08.088Z,11.02
2023-05-12T01:31:39.796Z,11.00
2023-05-12T01:34:19.070Z,10.97
2023-05-12T01:36:52.419Z,10.96
2023-05-12T01:39:24.351Z,10.96
2023-05-12T01:41:56.418Z,10.95
2023-05-12T01:44:28.377Z,10.94
2023-05-12T01:47:01.573Z,10.93
2023-05-12T01:49:35.583Z,10.91
2023-05-12T01:52:07.421Z,10.91
2023-05-12T01:54:39.136Z,10.89
2023-05-12T01:57:10.953Z,10.89
2023-05-12T01:59:43.061Z,10.87
2023-05-12T02:02:15.307Z,10.87
2023-05-12T02:04:47.503Z,10.90
2023-05-12T02:07:19.393Z,10.90
2023-05-12T02:09:51.128Z,10.95
2023-05-12T02:12:23.335Z,10.96
2023-05-12T02:14:55.597Z,10.98
2023-05-12T02:17:28.879Z,10.96
2023-05-12T02:20:02.597Z,10.96
2023-05-12T02:22:35.171Z,10.99
2023-05-12T02:25:07.841Z,11.02
2023-05-12T02:27:40.042Z,11.03
2023-05-12T02:30:12.398Z,11.05
2023-05-12T02:32:45.284Z,11.05
2023-05-12T02:35:16.939Z,11.07
2023-05-12T02:37:48.694Z,11.07
2023-05-12T02:40:21.171Z,11.06
2023-05-12T02:42:53.264Z,11.05
2023-05-12T02:45:25.216Z,11.04
2023-05-12T02:47:57.936Z,11.04
2023-05-12T02:50:30.708Z,11.05
2023-05-12T02:53:02.625Z,11.08
2023-05-12T02:55:35.110Z,11.09
2023-05-12T02:58:07.180Z,11.10
2023-05-12T03:00:39.227Z,11.12
2023-05-12T03:03:11.006Z,11.17
2023-05-12T03:05:44.724Z,11.20
2023-05-12T03:08:16.670Z,11.23
2023-05-12T03:10:48.454Z,11.24
2023-05-12T03:13:20.308Z,11.26
2023-05-12T03:15:52.178Z,11.28
2023-05-12T03:18:24.201Z,11.31
2023-05-12T03:20:55.830Z,11.36
2023-05-12T03:23:28.558Z,11.41
2023-05-12T03:26:00.561Z,11.47
2023-05-12T03:28:32.543Z,11.52
2023-05-12T03:31:04.654Z,11.59
2023-05-12T03:33:36.667Z,11.65
2023-05-12T03:36:08.836Z,11.71
2023-05-12T03:38:41.473Z,11.77
2023-05-12T03:41:13.407Z,11.82
2023-05-12T03:43:45.074Z,11.89
2023-05-12T03:46:16.931Z,11.96
2023-05-12T03:48:48.878Z,12.04
2023-05-12T03:51:21.026Z,12.12
2023-05-12T03:53:54.246Z,12.20
2023-05-12T03:56:26.337Z,12.30
2023-05-12T03:58:58.354Z,12.38
2023-05-12T04:01:30.355Z,12.46
2023-05-12T04:04:02.094Z,12.55
2023-05-12T04:06:34.414Z,12.65
2023-05-12T04:09:07.742Z,12.76
2023-05-12T04:11:40.670Z,12.87
2023-05-12T04:14:12.596Z,12.99
2023-05-12T04:16:44.406Z,13.10
2023-05-12T04:19:16.299Z,13.24
2023-05-12T04:21:48.157Z,13.40
2023-05-12T04:24:19.878Z,13.51
2023-05-12T04:26:51.851Z,13.62
2023-05-12T04:29:23.593Z,13.69
2023-05-12T04:31:56.289Z,13.77
2023-05-12T04:34:27.990Z,13.87
2023-05-12T04:37:00.043Z,13.97
2023-05-12T04:39:31.882Z,14.07
2023-05-12T04:42:03.689Z,14.15
2023-05-12T04:44:37.139Z,14.24
2023-05-12T04:47:19.688Z,14.29
2023-05-12T04:49:51.381Z,14.36
2023-05-12T04:52:24.765Z,14.43
2023-05-12T04:54:57.391Z,14.53
2023-05-12T04:57:29.364Z,14.62
2023-05-12T05:00:03.091Z,14.66
2023-05-12T05:02:36.100Z,14.73
2023-05-12T05:05:08.850Z,14.85
2023-05-12T05:07:41.336Z,14.96
2023-05-12T05:10:13.343Z,15.15
2023-05-12T05:12:48.325Z,15.31
2023-05-12T05:15:20.611Z,15.53
2023-05-12T05:17:53.812Z,15.70
2023-05-12T05:20:29.162Z,15.89
2023-05-12T05:23:19.153Z,16.02
2023-05-12T05:25:51.568Z,16.12
2023-05-12T05:28:24.536Z,16.32
2023-05-12T05:30:56.189Z,16.53
2023-05-12T05:33:28.683Z,16.70
2023-05-12T05:36:07.005Z,16.85
2023-05-12T05:38:39.201Z,17.04
2023-05-12T05:41:10.742Z,17.20
2023-05-12T05:43:42.633Z,17.33
2023-05-12T05:46:14.761Z,17.46
2023-05-12T05:48:46.512Z,17.57
2023-05-12T05:51:18.918Z,17.66
2023-05-12T05:53:50.796Z,17.76
2023-05-12T05:56:23.117Z,17.89
2023-05-12T05:58:55.649Z,18.01
2023-05-12T06:01:27.238Z,18.13
2023-05-12T06:03:59.422Z,18.28
2023-05-12T06:06:31.436Z,18.46
2023-05-12T06:09:03.719Z,18.69
2023-05-12T06:11:45.741Z,18.88
2023-05-12T06:14:19.154Z,18.88
2023-05-12T06:16:51.924Z,18.94
2023-05-12T06:19:23.571Z,19.11
2023-05-12T06:21:55.250Z,19.17
2023-05-12T06:24:26.871Z,19.22
2023-05-12T06:26:58.536Z,19.34
2023-05-12T06:29:30.263Z,19.45
2023-05-12T06:32:01.909Z,19.53
2023-05-12T06:34:33.937Z,19.59
2023-05-12T06:37:06.270Z,19.66
2023-05-12T06:39:38.819Z,19.76
2023-05-12T06:42:11.505Z,19.90
2023-05-12T06:44:46.748Z,20.06
2023-05-12T06:47:18.461Z,20.25
2023-05-12T06:49:50.586Z,20.38
2023-05-12T06:52:23.977Z,20.47
2023-05-12T06:54:55.671Z,20.58
2023-05-12T06:57:27.329Z,20.69
2023-05-12T07:00:00.621Z,20.79
2023-05-12T07:02:32.770Z,20.94
2023-05-12T07:05:16.082Z,21.10
2023-05-12T07:07:47.810Z,21.25
2023-05-12T07:10:21.271Z,21.22
2023-05-12T07:12:53.353Z,21.28
2023-05-12T07:15:25.409Z,21.31
2023-05-12T07:17:57.581Z,21.41
2023-05-12T07:20:29.399Z,21.53
2023-05-12T07:23:01.109Z,21.71
2023-05-12T07:25:32.895Z,21.89
2023-05-12T07:28:05.249Z,22.04
2023-05-12T07:30:37.894Z,22.06
2023-05-12T07:33:09.779Z,22.06
2023-05-12T07:35:41.431Z,22.19
2023-05-12T07:38:13.282Z,22.35
2023-05-12T07:40:45.400Z,22.39
2023-05-12T07:43:18.187Z,22.46
2023-05-12T07:45:49.875Z,22.64
2023-05-12T07:48:21.883Z,22.77
2023-05-12T07:50:53.747Z,22.88
2023-05-12T07:53:25.662Z,22.99
2023-05-12T07:55:57.275Z,22.98
2023-05-12T07:58:28.844Z,22.93
2023-05-12T08:01:02.497Z,23.03
2023-05-12T08:03:35.946Z,23.13
2023-05-12T08:06:08.415Z,23.19
2023-05-12T08:08:40.088Z,23.26
2023-05-12T08:11:12.819Z,23.32
2023-05-12T08:13:45.142Z,23.42
2023-05-12T08:16:17.627Z,23.57
2023-05-12T08:18:50.167Z,23.73
2023-05-12T08:21:22.030Z,23.72
2023-05-12T08:23:53.715Z,23.64
2023-05-12T08:26:25.533Z,23.66
2023-05-12T08:28:57.301Z,23.71
2023-05-12T08:31:29.049Z,23.84
2023-05-12T08:34:09.863Z,24.06
2023-05-12T08:36:34.860Z,24.18
2023-05-12T08:39:06.812Z,24.31
2023-05-12T08:41:59.802Z,24.45
2023-05-12T08:44:32.102Z,24.60
2023-05-12T08:47:03.866Z,24.80
2023-05-12T08:49:36.957Z,24.96
2023-05-12T08:52:09.206Z,25.14
2023-05-12T08:54:52.246Z,25.22
2023-05-12T08:57:14.631Z,25.34
2023-05-12T08:59:46.436Z,25.36
2023-05-12T09:02:18.751Z,25.24
2023-05-12T09:04:51.533Z,25.35
2023-05-12T09:07:26.903Z,25.43
2023-05-12T09:09:59.605Z,25.02
2023-05-12T09:12:32.828Z,24.66
2023-05-12T09:15:11.023Z,24.72
2023-05-12T09:17:42.874Z,24.72
2023-05-12T09:20:27.957Z,24.53
2023-05-12T09:22:48.340Z,24.38
2023-05-12T09:25:21.954Z,24.29
2023-05-12T09:27:56.884Z,24.51
2023-05-12T09:30:34.163Z,24.68
2023-05-12T09:33:10.004Z,25.02
2023-05-12T09:35:43.308Z,25.33
2023-05-12T09:38:15.908Z,25.52
2023-05-12T09:40:47.581Z,25.73
2023-05-12T09:43:21.049Z,25.96
2023-05-12T09:45:52.688Z,25.96
2023-05-12T09:48:27.426Z,25.75
2023-05-12T09:50:58.820Z,25.82
2023-05-12T09:53:30.512Z,25.78
2023-05-12T09:56:02.498Z,25.83
2023-05-12T09:58:34.462Z,25.97
2023-05-12T10:01:21.894Z,26.01
2023-05-12T10:03:40.321Z,25.81
2023-05-12T10:06:15.735Z,25.50
2023-05-12T10:09:11.806Z,24.99
2023-05-12T10:11:44.418Z,24.54
2023-05-12T10:14:16.012Z,24.15
2023-05-12T10:16:47.757Z,23.90
2023-05-12T10:19:19.718Z,24.08
2023-05-12T10:21:51.502Z,24.47
2023-05-12T10:24:23.348Z,24.76
2023-05-12T10:26:59.725Z,25.09
2023-05-12T10:29:33.156Z,25.41
2023-05-12T10:32:04.863Z,25.66
2023-05-12T10:34:38.122Z,25.88
2023-05-12T10:37:11.763Z,25.75
2023-05-12T10:39:50.899Z,25.50
2023-05-12T10:42:25.333Z,25.49
2023-05-12T10:44:57.499Z,25.74
2023-05-12T10:47:39.616Z,25.95
2023-05-12T10:50:14.864Z,26.12
2023-05-12T10:52:59.050Z,26.21
2023-05-12T10:55:35.212Z,26.16
2023-05-12T10:58:13.640Z,25.94
2023-05-12T11:00:55.553Z,25.93
2023-05-12T11:03:28.991Z,26.06
2023-05-12T11:06:05.757Z,26.08
2023-05-12T11:08:39.912Z,25.78
2023-05-12T11:11:11.989Z,25.62
2023-05-12T11:13:43.663Z,25.33
2023-05-12T11:16:16.524Z,25.06
2023-05-12T11:18:48.619Z,24.79
2023-05-12T11:21:20.317Z,24.52
2023-05-12T11:23:52.753Z,24.41
2023-05-12T11:26:24.256Z,24.35
2023-05-12T11:28:58.760Z,24.31
2023-05-12T11:31:30.491Z,24.26
2023-05-12T11:34:13.277Z,24.28
2023-05-12T11:36:42.845Z,24.27
2023-05-12T11:39:18.401Z,24.21
2023-05-12T11:41:56.581Z,24.13
2023-05-12T11:44:27.025Z,24.02
2023-05-12T11:47:13.996Z,23.90
2023-05-12T11:49:50.206Z,23.77
2023-05-12T11:52:23.133Z,23.63
2023-05-12T11:54:58.753Z,23.50
2023-05-12T11:57:32.380Z,23.41
2023-05-12T12:00:09.647Z,23.21
2023-05-12T12:02:43.507Z,22.98
2023-05-12T12:05:20.022Z,22.82
2023-05-12T12:07:52.053Z,22.64
2023-05-12T12:10:23.962Z,22.46
2023-05-12T12:12:56.178Z,22.34
2023-05-12T12:15:28.578Z,22.23
2023-05-12T12:18:00.269Z,22.31
2023-05-12T12:20:32.129Z,22.53
2023-05-12T12:23:03.735Z,22.84
2023-05-12T12:25:35.754Z,23.13
2023-05-12T12:28:08.442Z,23.46
2023-05-12T12:30:40.033Z,23.68
2023-05-12T12:33:11.715Z,23.83
2023-05-12T12:35:43.414Z,23.88
2023-05-12T12:38:19.758Z,23.88
2023-05-12T12:40:51.722Z,23.81
2023-05-12T12:43:23.665Z,23.63
2023-05-12T12:45:55.540Z,23.48
2023-05-12T12:48:28.728Z,23.30
2023-05-12T12:51:00.687Z,23.11
2023-05-12T12:53:32.561Z,22.94
2023-05-12T12:56:05.304Z,22.74
2023-05-12T12:58:37.309Z,22.66
2023-05-12T13:01:09.687Z,22.55
2023-05-12T13:03:41.554Z,22.44
2023-05-12T13:06:13.386Z,22.32
2023-05-12T13:08:45.259Z,22.26
2023-05-12T13:11:17.038Z,22.32
2023-05-12T13:13:48.625Z,22.45
2023-05-12T13:16:20.282Z,22.64
2023-05-12T13:18:51.988Z,22.80
2023-05-12T13:21:23.676Z,22.98
2023-05-12T13:23:55.605Z,23.11
2023-05-12T13:26:27.332Z,23.22
2023-05-12T13:28:59.061Z,23.28
2023-05-12T13:31:32.424Z,23.32
2023-05-12T13:34:04.110Z,23.31
2023-05-12T13:36:36.592Z,23.29
2023-05-12T13:39:10.091Z,23.29
2023-05-12T13:41:41.983Z,23.29
2023-05-12T13:44:13.848Z,23.27
2023-05-12T13:46:46.568Z,23.24
2023-05-12T13:49:19.852Z,23.23
2023-05-12T13:51:51.758Z,23.19
2023-05-12T13:54:24.924Z,23.11
2023-05-12T13:56:56.667Z,22.99
2023-05-12T13:59:28.210Z,22.88
2023-05-12T14:02:00.893Z,22.84
2023-05-12T14:04:32.794Z,22.82
2023-05-12T14:07:06.583Z,22.72
2023-05-12T14:09:38.821Z,22.60
2023-05-12T14:12:11.295Z,22.49
2023-05-12T14:14:45.023Z,22.45
2023-05-12T14:17:18.715Z,22.46
2023-05-12T14:19:50.808Z,22.45
2023-05-12T14:22:26.361Z,22.27
2023-05-12T14:24:56.854Z,22.18
2023-05-12T14:27:29.104Z,22.14
2023-05-12T14:30:01.061Z,22.08
2023-05-12T14:32:34.396Z,22.10
2023-05-12T14:35:08.259Z,22.11
2023-05-12T14:37:40.441Z,22.07
2023-05-12T14:40:13.814Z,22.03
2023-05-12T14:42:45.501Z,21.97
2023-05-12T14:45:18.023Z,21.91
2023-05-12T14:47:50.187Z,21.84
2023-05-12T14:50:23.624Z,21.77
2023-05-12T14:52:55.646Z,21.69
2023-05-12T14:55:28.350Z,21.64
2023-05-12T14:58:00.497Z,21.60
2023-05-12T15:00:33.447Z,21.55
2023-05-12T15:03:05.766Z,21.46
2023-05-12T15:05:56.675Z,21.44
2023-05-12T15:08:13.461Z,21.43
2023-05-12T15:10:45.682Z,21.43
2023-05-12T15:13:19.187Z,21.37
2023-05-12T15:15:51.886Z,21.34
2023-05-12T15:18:24.599Z,21.34
2023-05-12T15:20:56.409Z,21.26
2023-05-12T15:23:28.120Z,21.19
2023-05-12T15:26:06.944Z,21.14
2023-05-12T15:28:33.404Z,21.08
2023-05-12T15:31:05.150Z,21.06
2023-05-12T15:33:38.585Z,21.04
2023-05-12T15:36:11.621Z,21.00
2023-05-12T15:38:43.572Z,20.97
2023-05-12T15:41:15.291Z,20.96
2023-05-12T15:43:47.059Z,20.94
2023-05-12T15:46:18.941Z,20.93
2023-05-12T15:48:50.689Z,20.93
2023-05-12T15:51:22.441Z,20.93
2023-05-12T15:53:54.345Z,20.95
2023-05-12T15:56:25.922Z,20.94
2023-05-12T15:58:57.553Z,20.91
2023-05-12T16:01:29.169Z,20.90
2023-05-12T16:04:01.450Z,20.87
2023-05-12T16:06:33.192Z,20.84
2023-05-12T16:09:05.015Z,20.80
2023-05-12T16:11:36.785Z,20.75
2023-05-12T16:14:08.583Z,20.70
2023-05-12T16:16:41.930Z,20.65
2023-05-12T16:19:13.799Z,20.58
2023-05-12T16:21:45.488Z,20.50
2023-05-12T16:24:17.704Z,20.44
2023-05-12T16:26:49.505Z,20.38
2023-05-12T16:29:23.189Z,20.30
2023-05-12T16:31:54.795Z,20.24
2023-05-12T16:34:26.426Z,20.19
2023-05-12T16:36:58.257Z,20.11
2023-05-12T16:39:31.809Z,20.06
2023-05-12T16:42:03.555Z,20.01
2023-05-12T16:44:35.268Z,19.94
2023-05-12T16:47:07.286Z,19.88
2023-05-12T16:49:39.164Z,19.83
2023-05-12T16:52:12.538Z,19.78
2023-05-12T16:54:45.099Z,19.72
2023-05-12T16:57:18.286Z,19.67
2023-05-12T16:59:49.832Z,19.61
2023-05-12T17:02:22.085Z,19.55
2023-05-12T17:04:54.023Z,19.50
2023-05-12T17:07:26.503Z,19.44
2023-05-12T17:09:58.153Z,19.37
2023-05-12T17:12:30.092Z,19.32
2023-05-12T17:15:22.215Z,19.24
2023-05-12T17:17:36.272Z,19.18
2023-05-12T17:20:09.235Z,19.13
2023-05-12T17:22:42.640Z,19.09
2023-05-12T17:25:15.630Z,19.04
2023-05-12T17:27:49.326Z,18.99
2023-05-12T17:30:21.348Z,18.97
2023-05-12T17:32:53.864Z,18.95
2023-05-12T17:35:25.673Z,18.92
2023-05-12T17:37:57.751Z,18.87
2023-05-12T17:40:29.457Z,18.81
2023-05-12T17:43:01.224Z,18.77
2023-05-12T17:45:33.172Z,18.69
2023-05-12T17:48:06.402Z,18.62
2023-05-12T17:50:39.390Z,18.56
2023-05-12T17:53:11.579Z,18.48
2023-05-12T17:55:43.175Z,18.42
2023-05-12T17:58:15.623Z,18.36
2023-05-12T18:00:47.854Z,18.30
2023-05-12T18:03:21.571Z,18.22
2023-05-12T18:05:54.697Z,18.16
2023-05-12T18:08:27.338Z,18.11
2023-05-12T18:10:59.101Z,18.05
2023-05-12T18:13:31.152Z,18.00
2023-05-12T18:16:03.270Z,17.96
2023-05-12T18:18:35.782Z,17.90
2023-05-12T18:21:08.325Z,17.87
2023-05-12T18:23:40.366Z,17.83
2023-05-12T18:26:12.075Z,17.79
2023-05-12T18:28:43.933Z,17.78
2023-05-12T18:31:16.613Z,17.76
2023-05-12T18:33:49.944Z,17.76
2023-05-12T18:36:22.004Z,17.77
2023-05-12T18:38:54.369Z,17.78
2023-05-12T18:41:26.550Z,17.78
2023-05-12T18:43:58.634Z,17.76
2023-05-12T18:46:31.285Z,17.74
2023-05-12T18:49:04.026Z,17.71
2023-05-12T18:51:36.492Z,17.70
2023-05-12T18:54:08.194Z,17.69
2023-05-12T18:56:40.888Z,17.68
2023-05-12T18:59:13.426Z,17.68
2023-05-12T19:01:46.200Z,17.69
2023-05-12T19:04:19.663Z,17.71
2023-05-12T19:06:52.132Z,17.70
2023-05-12T19:09:24.108Z,17.70
2023-05-12T19:11:56.344Z,17.67
2023-05-12T19:14:28.359Z,17.65
2023-05-12T19:17:00.050Z,17.62
2023-05-12T19:19:32.123Z,17.61
2023-05-12T19:22:04.489Z,17.59
2023-05-12T19:24:38.371Z,17.57
2023-05-12T19:27:11.889Z,17.55
2023-05-12T19:29:44.308Z,17.50
2023-05-12T19:32:16.770Z,17.41
2023-05-12T19:34:51.428Z,17.32
2023-05-12T19:37:23.272Z,17.25
2023-05-12T19:39:54.998Z,17.19
2023-05-12T19:42:27.704Z,17.08
2023-05-12T19:45:00.803Z,17.00
2023-05-12T19:47:33.860Z,16.91
2023-05-12T19:50:07.358Z,16.81
2023-05-12T19:52:39.946Z,16.72
2023-05-12T19:55:12.054Z,16.64
2023-05-12T19:57:45.123Z,16.59
2023-05-12T20:00:17.650Z,16.51
2023-05-12T20:02:51.737Z,16.45
2023-05-12T20:05:23.539Z,16.40
2023-05-12T20:07:56.652Z,16.36
2023-05-12T20:10:28.435Z,16.29
2023-05-12T20:13:02.678Z,16.23
2023-05-12T20:15:34.387Z,16.19
2023-05-12T20:18:06.441Z,16.16
2023-05-12T20:20:38.304Z,16.12
2023-05-12T20:23:09.949Z,16.07
2023-05-12T20:25:41.600Z,16.04
2023-05-12T20:28:14.054Z,16.00
2023-05-12T20:30:46.104Z,15.97
2023-05-12T20:33:18.149Z,15.93
2023-05-12T20:35:50.139Z,15.90
2023-05-12T20:38:24.348Z,15.86
2023-05-12T20:40:55.970Z,15.81
2023-05-12T20:43:28.184Z,15.76
2023-05-12T20:46:00.183Z,15.71
2023-05-12T20:48:32.877Z,15.68
2023-05-12T20:51:12.153Z,15.64
2023-05-12T20:53:44.018Z,15.60
2023-05-12T20:56:15.869Z,15.54
2023-05-12T20:58:47.496Z,15.50
2023-05-12T21:01:19.481Z,15.46
2023-05-12T21:03:51.293Z,15.41
2023-05-12T21:06:23.075Z,15.36
2023-05-12T21:08:54.912Z,15.30
2023-05-12T21:11:26.999Z,15.26
2023-05-12T21:13:58.692Z,15.19
2023-05-12T21:16:30.717Z,15.17
2023-05-12T21:19:02.910Z,15.12
2023-05-12T21:21:35.517Z,15.10
2023-05-12T21:24:07.764Z,15.08
2023-05-12T21:26:39.560Z,15.04
2023-05-12T21:29:11.259Z,14.98
2023-05-12T21:31:43.057Z,14.97
2023-05-12T21:34:15.333Z,14.93
2023-05-12T21:36:47.006Z,14.89
2023-05-12T21:39:18.613Z,14.86
2023-05-12T21:41:50.474Z,14.82
2023-05-12T21:44:22.123Z,14.77
2023-05-12T21:46:53.818Z,14.74
2023-05-12T21:49:46.716Z,14.70
2023-05-12T21:52:18.552Z,14.65
2023-05-12T21:54:50.766Z,14.63
2023-05-12T21:57:22.758Z,14.60
2023-05-12T21:59:56.303Z,14.56
2023-05-12T22:02:27.872Z,14.53
2023-05-12T22:04:59.797Z,14.50
2023-05-12T22:07:31.884Z,14.47
2023-05-12T22:10:04.634Z,14.44
2023-05-12T22:12:37.702Z,14.41
2023-05-12T22:15:11.210Z,14.38
2023-05-12T22:17:43.289Z,14.33
2023-05-12T22:20:16.647Z,14.30
2023-05-12T22:22:49.268Z,14.26
2023-05-12T22:25:20.920Z,14.26
2023-05-12T22:27:52.672Z,14.22
2023-05-12T22:30:25.057Z,14.19
2023-05-12T22:32:57.448Z,14.15
2023-05-12T22:35:29.737Z,14.09
2023-05-12T22:38:01.795Z,14.03
2023-05-12T22:40:33.902Z,13.96
2023-05-12T22:43:07.002Z,13.91
2023-05-12T22:45:39.252Z,13.88
2023-05-12T22:50:55.324Z,13.85
2023-05-12T22:53:27.351Z,13.81
2023-05-12T22:55:59.016Z,13.75
2023-05-12T22:58:31.492Z,13.69
2023-05-12T23:01:03.164Z,13.65
2023-05-12T23:03:36.195Z,13.60
2023-05-12T23:06:08.094Z,13.54
2023-05-12T23:08:40.444Z,13.51
2023-05-12T23:11:13.005Z,13.48
2023-05-12T23:13:44.881Z,13.43
2023-05-12T23:16:16.687Z,13.38
2023-05-12T23:18:49.222Z,13.34
2023-05-12T23:21:20.909Z,13.29
2023-05-12T23:23:52.969Z,13.28
2023-05-12T23:26:24.642Z,13.26
2023-05-12T23:28:56.679Z,13.25
2023-05-12T23:31:28.594Z,13.23
2023-05-12T23:34:00.649Z,13.22
2023-05-12T23:36:32.738Z,13.19
2023-05-12T23:39:04.472Z,13.14
2023-05-12T23:41:37.489Z,13.10
2023-05-12T23:44:09.831Z,13.07
2023-05-12T23:46:42.274Z,13.07
2023-05-12T23:49:26.456Z,13.06
2023-05-12T23:51:59.522Z,13.02
2023-05-12T23:54:31.509Z,12.97
2023-05-12T23:57:03.376Z,12.94
2023-05-12T23:59:35.153Z,12.89
